Terminal Aerodrome Forecast
Issued by NWS Northern Indiana

Home | Current Version | Previous Version | Graphics & Text | Print | Product List | Glossary Off
Versions: 1 2 3 4 5 6 7 8 9 10 11 12 13 14

000
FTUS43 KIWX 141100
TAFFWA
TAF
KFWA 141138Z 1412/1512 23005KT P6SM BKN120
     FM141800 24012KT P6SM VCSH BKN080
      TEMPO 1418/1420 5SM -TSRA BKN060CB
     FM142200 27012KT P6SM BKN060=

USA.gov is the U.S. government's official web portal to all federal, state and local government web resources and services.